• Join FlightAware (Why Join?)
  • Login
  • US Flag 
04:13AM EST


 

Airport Tracker/Info


-or-


 

Live Flight TrackerFlight Track Log ✈ N6ZQ ✈ 24-Aug-2013 ✈ VA42 - KPHF

Flight Track Log - Related Links

Times and Time Zones

All times are in EDT time to prevent confusion due to time zone crossing. See the N6ZQ flight status page for this flight to view local times or setup timezone preferences in your user account.

Time Position Orientation Groundspeed Altitude Reporting Facility
EDT Latitude Longitude Course Direction KTS MPH feet Rate Location/Type
06:44AM 38.3500 -77.4000 113° Southeast 124 143 2,200  Level Potomac TRACON
06:45AM 38.3333 -77.3500 113° Southeast 161 185 3,200 1,252 Climbing Potomac TRACON
06:46AM 38.3000 -77.3167 142° Southeast 170 196 4,600 893 Climbing Potomac TRACON
06:47AM 38.2667 -77.2667 130° Southeast 194 223 5,000 200 Climbing Potomac TRACON
06:48AM 38.2333 -77.2167 130° Southeast 182 209 5,000 53 Level Potomac TRACON
06:49AM 38.2167 -77.1833 122° Southeast 174 200 5,100 53 Climbing Potomac TRACON
06:50AM 38.1667 -77.1333 142° Southeast 195 224 5,100 -50 Level Potomac TRACON
06:51AM 38.1333 -77.0833 130° Southeast 208 239 5,000  Descending Potomac TRACON
06:52AM 38.0833 -77.0667 165° South 202 232 5,100 53 Climbing Potomac TRACON
06:52AM 38.0333 -77.0333 152° Southeast 205 236 5,100 -53 Level Potomac TRACON
06:53AM 37.9833 -77.0000 152° Southeast 205 236 5,000 -50 Descending Potomac TRACON
06:54AM 37.9333 -76.9667 152° Southeast 206 237 5,000  Level Potomac TRACON
06:55AM 37.8833 -76.9333 152° Southeast 209 241 5,000  Level Potomac TRACON
06:56AM 37.8333 -76.9167 165° South 195 224 5,000 50 Level Potomac TRACON
06:57AM 37.7833 -76.8833 152° Southeast 191 220 5,100  Climbing Potomac TRACON
06:59AM 37.7203 -76.8467 155° Southeast 188 216 5,000 -124 Descending Washington Center
07:00AM 37.6728 -76.8169 154° Southeast 189 217 4,800 -341 Descending Washington Center
07:01AM 37.6250 -76.7822 150° Southeast 201 231 4,300 -590 Descending Washington Center
07:02AM 37.5711 -76.7525 156° South 203 234 3,600 -600 Descending Washington Center
07:03AM 37.5172 -76.7203 155° Southeast 204 235 3,100 -450 Descending Washington Center
07:04AM 37.4675 -76.6881 153° Southeast 203 234 2,700 -443 Descending Washington Center
07:05AM 37.4197 -76.6561 152° Southeast 202 232 2,200 -344 Descending Washington Center
07:06AM 37.3700 -76.6267 155° Southeast 197 227 2,000 -98 Descending Washington Center
07:07AM 37.3181 -76.6000 158° South 184 212 2,000  Level Washington Center
07:08AM 37.2658 -76.6044 184° South 188 216 2,000  Level Washington Center
07:09AM 37.2136 -76.6117 186° South 189 217 2,000 -50 Level Washington Center
07:10AM 37.1614 -76.6161 184° South 188 216 1,900 -344 Descending Washington Center
07:11AM 37.1158 -76.5842 151° Southeast 181 208 1,300 -393 Descending Washington Center
07:12AM 37.1014 -76.5475 116° Southeast 105 121 1,100 -156 Descending Washington Center
07:14AM 37.1375 -76.4778 57° Northeast 122 140 800 30 Descending Washington Center
07:15AM 37.1561 -76.4883 336° Northwest 120 138 1,200 48 Climbing Washington Center
07:16AM 37.1392 -76.5244 240° Southwest 120 138 900 -295 Descending Washington Center